• Join FlightAware (Why Join?)
  • Login
  • US Flag 
07:10PM EST


 

Airport Tracker/Info


-or-


 

Live Flight TrackerFlight Track Log ✈ EJA831 ✈ 28-Sep-2013 ✈ KOAK - KLAX

Flight Track Log - Related Links

Times and Time Zones

All times are in EDT time to prevent confusion due to time zone crossing. See the EJA831 flight status page for this flight to view local times or setup timezone preferences in your user account.

Time Position Orientation Groundspeed Altitude Reporting Facility
EDT Latitude Longitude Course Direction KTS MPH feet Rate Location/Type
09:47PM 37.7333 -122.2667 288° West 193 222 2,100  Level Northern Cal TRACON
09:48PM 37.7500 -122.3333 288° West 226 260 4,900 2,940 Climbing Northern Cal TRACON
09:49PM 37.7000 -122.3500 195° South 230 265 7,700 3,300 Climbing Northern Cal TRACON
09:50PM 37.6167 -122.3833 198° South 291 335 11,600 3,240 Climbing Northern Cal TRACON
09:52PM 37.4989 -122.4106 190° South 297 342 16,000 2,940 Climbing Oakland Center
09:53PM 37.4125 -122.4372 194° South 314 361 18,900 2,640 Climbing Oakland Center
09:54PM 37.3228 -122.4633 193° South 327 376 21,400 2,460 Climbing Oakland Center
09:55PM 37.2306 -122.4919 194° South 339 390 24,000 1,920 Climbing Oakland Center
09:56PM 37.1367 -122.5175 192° South 347 399 25,400 1,500 Climbing Oakland Center
09:57PM 37.0431 -122.4603 154° Southeast 375 432 27,100 1,620 Climbing Oakland Center
09:58PM 36.9569 -122.3789 143° Southeast 387 445 28,800 900 Climbing Oakland Center
09:59PM 36.8664 -122.2964 144° Southeast 400 460 29,000 60 Climbing Oakland Center
10:00PM 36.7750 -122.2147 144° Southeast 405 466 29,000  Level Oakland Center
10:01PM 36.6853 -122.1347 144° Southeast 398 458 29,000  Level Oakland Center
10:02PM 36.5975 -122.0558 144° Southeast 391 450 29,000  Level Oakland Center
10:03PM 36.4925 -121.9650 145° Southeast 385 443 29,000  Level Oakland Center
10:04PM 36.4061 -121.8856 143° Southeast 387 445 29,000  Level Oakland Center
10:05PM 36.3178 -121.8111 146° Southeast 387 445 29,000  Level Oakland Center
10:06PM 36.2389 -121.7403 144° Southeast 381 438 29,000  Level Oakland Center
10:07PM 36.1508 -121.6656 146° Southeast 383 441 29,000  Level Oakland Center
10:08PM 36.0639 -121.5897 145° Southeast 384 442 29,000  Level Oakland Center
10:09PM 35.9769 -121.5144 145° Southeast 383 441 29,000  Level Oakland Center
10:10PM 35.8900 -121.4397 145° Southeast 382 440 29,000  Level Oakland Center
10:11PM 35.7853 -121.3503 145° Southeast 383 441 29,000  Level Oakland Center
10:12PM 35.6994 -121.2753 145° Southeast 381 438 29,000  Level Oakland Center
10:13PM 35.6133 -121.2003 145° Southeast 380 437 29,000  Level Oakland Center
10:14PM 35.5267 -121.1258 145° Southeast 382 440 29,000  Level Oakland Center
10:15PM 35.4489 -121.0650 147° Southeast 381 438 29,000  Level Los Angeles Center
10:16PM 35.3606 -120.9956 147° Southeast 379 436 29,000  Level Los Angeles Center
10:17PM 35.2539 -120.9117 147° Southeast 379 436 29,000  Level Los Angeles Center
10:18PM 35.1647 -120.8431 148° Southeast 379 436 29,000  Level Los Angeles Center
10:19PM 35.0756 -120.7731 147° Southeast 380 437 29,000  Level Los Angeles Center
10:20PM 34.9858 -120.7036 148° Southeast 381 438 29,000  Level Los Angeles Center
10:21PM 34.8964 -120.6342 148° Southeast 380 437 29,000  Level Los Angeles Center
10:22PM 34.8000 -120.5586 147° Southeast 379 436 29,000  Level Los Angeles Center
10:23PM 34.7111 -120.4892 147° Southeast 381 438 29,000  Level Los Angeles Center
10:24PM 34.6219 -120.4203 148° Southeast 382 440 29,000  Level Los Angeles Center
10:25PM 34.5331 -120.3550 149° Southeast 379 436 29,000  Level Los Angeles Center
10:26PM 34.4444 -120.2886 148° Southeast 374 430 29,000 -60 Level Los Angeles Center
10:27PM 34.3550 -120.2206 148° Southeast 378 435 28,900 -780 Descending Los Angeles Center
10:28PM 34.2567 -120.1417 146° Southeast 396 456 27,500 -1,440 Descending Los Angeles Center
10:29PM 34.1961 -120.0278 123° Southeast 404 465 26,000 -1,440 Descending Los Angeles Center
10:30PM 34.1397 -119.9136 121° Southeast 399 459 24,600 -1,440 Descending Los Angeles Center
10:31PM 34.0831 -119.8033 122° Southeast 390 449 23,100 -1,500 Descending Los Angeles Center
10:32PM 34.0278 -119.6928 121° Southeast 387 445 21,600 -1,500 Descending Los Angeles Center
10:33PM 33.9742 -119.5858 121° Southeast 375 432 20,100 -1,500 Descending Los Angeles Center
10:35PM 33.9217 -119.4828 122° Southeast 364 419 18,600 -1,560 Descending Los Angeles Center
10:36PM 33.8622 -119.3631 121° Southeast 348 400 17,000 -1,440 Descending Los Angeles Center
10:37PM 33.8122 -119.2647 121° Southeast 347 399 15,700 -1,320 Descending Los Angeles Center
10:38PM 33.7619 -119.1681 122° Southeast 343 395 14,400 -1,320 Descending Los Angeles Center
10:39PM 33.7128 -119.0728 122° Southeast 337 388 13,100 -1,320 Descending Los Angeles Center
10:40PM 33.6667 -118.9814 121° Southeast 322 371 11,800 -1,080 Descending Los Angeles Center
10:41PM 33.6214 -118.8944 122° Southeast 310 357 11,000 -420 Descending Los Angeles Center
10:42PM 33.5772 -118.8072 121° Southeast 309 356 11,000 -540 Level Los Angeles Center
10:43PM 33.5542 -118.7100 106° East 307 353 10,000 -1,320 Descending Los Angeles Center
10:44PM 33.5350 -118.6181 104° East 293 337 8,400 -1,680 Descending Los Angeles Center
10:45PM 33.5344 -118.5175 90° East 266 306 6,600 -1,680 Descending Los Angeles Center
10:46PM 33.5450 -118.4358 81° East 254 292 5,100 -840 Descending Los Angeles Center
10:47PM 33.5567 -118.3556 80° East 250 288 5,000 -60 Descending Los Angeles Center
10:48PM 33.5683 -118.2739 80° East 250 288 5,000 -60 Level Los Angeles Center
10:49PM 33.5778 -118.1967 82° East 244 281 4,900  Descending Los Angeles Center
10:50PM 33.5872 -118.1286 81° East 223 257 5,000 60 Climbing Los Angeles Center
10:51PM 33.6108 -118.0661 66° East 218 251 5,100  Climbing Los Angeles Center
10:52PM 33.6564 -118.0011 50° Northeast 214 246 5,100 -420 Level Los Angeles Center
10:53PM 33.7167 -117.9500 35° Northeast 203 234 4,200 -900 Descending Southern California TRACON
10:54PM 33.7500 -117.9167 40° Northeast 192 221 3,200 -900 Descending Southern California TRACON
10:55PM 33.7667 -117.8667 68° East 176 203 2,400 -900 Descending Southern California TRACON
10:56PM 33.7333 -117.8333 140° Southeast 154 177 1,400 -1,020 Descending Southern California TRACON
10:57PM 33.7000 -117.8500 203° Southwest 134 154 400 -1,020 Descending Southern California TRACON
11:00PM 33.6667 -117.8667 132° Southeast  Level FlightAware Approximate
11:07PM 33.9425 -118.4081 132° Southeast  Level Estimated
11:08PM 33.9425 -118.4081 132° Southeast  Level Estimated
11:09PM 33.9425 -118.4081 132° Southeast  Level Estimated
11:10PM 33.9425 -118.4081 132° Southeast  Level Estimated
11:11PM 33.9425 -118.4081 132° Southeast  Level Estimated